Southwest Georgia Regional Airport
KABY : now visible

Airfield :











YOU CAN JOIN US ON...

 
LOGIN :

Register | Disclaimer

   EN    FR    IT 

 









Legend :    VFR   Marginal VFR   IFR   Intensive IFR   Very Intensive IFR
Visi :
Ceiling :
>= 8 km
>= 3000ft
5 to 8 km
1000 to 3000 ft
1500m to 5 km
500 to 1000 ft
800 to 1500m
200 to 500 ft
< 800m
< 200 ft
Symbols :   Thunderstorms  Fog  Heavy snow  Heavy precipitations  Wind > 20 kt







- Airport Elevation : 197 ft
- IATA code : ABY


KABY - Southwest Georgia Regional

CURRENT METAR :
  • 181553Z 17010G15KT 10SM FEW042 BKN050 26/16 A3001 RMK AO2 SLP161 T02610161

EXPIRED METARs :
  • 181453Z 18011KT 10SM SCT050 25/16 A3001 RMK AO2 SLP161 T02500161 51015
  • 181353Z 18016KT 10SM CLR 23/16 A2999 RMK AO2 SLP154 T02330161

TAF KABY
Valid from the 18 at 12:00 until the 19 at 12:00 UTC


181120Z 1812/1912 16006KT P6SM SCT250 WS020/16040KT
FM181400 18012G18KT P6SM BKN250
FM181800 18014G22KT P6SM BKN040
KZJX FIR / North America



MET'MAP, your aeronautical weather chart ! - Copyright ORBIFLY December 2007 - Disclaimer

ORBIFLY MET'MAP TEAM :

Programming & Development : Alexandra Zaïnal
Concept & Development : Baudouin d'Aumeries
Co-Development & Prog : Marc-Olivier Méhu
Technical & hardware support : Manuel Goepfert

Contact : metmap@orbifly.com




SOURCES & CREDITS :

   NOAA       Earth
Advisory